logo
Search for airport 
image banner adimage banner adimage banner ad
image banner ad

LSMD - Dubendorf

Located in , Switzerland

ICAO - LSMD, IATA -

Data provided by Airmate  

General information

Coordinates: N47°23'54" E8°38'54"
Elevation is 1470 feet MSL.
Magnetic variation is 2.948° East
View others Airports in Zurich

Operational data

Special qualification required
Current time UTC:
Current local time:
Weather
METAR: LSMD 152120Z AUTO 29013KT 250V330 9999NDV FEW063 BKN073 BKN083 13/02 Q1010 RMK
View NOTAMs / SUP AIP / TFR affecting this airport [VIEW]
Communications frequencies: [VIEW]

Runways:

RWY identifierQFULength (ft)Width (ft)SurfaceLDA (ft)
117726131ASPH7726
297726131ASPH7546

Airport contact information

Address: Switzerland

Other aviation service providers

Aviation club (not for profit)

Verein Der Freunde Der Schweizerischen Luftwaffe (Vfl)

Verein Der Freunde Der Schweizerischen Luftwaffe (Vfl)

Satellite view of LSMD